Portada
METAR-TAF:

METAR-TAF

Aeroports :

Tahití, Polinèsia Francesa

latitud: 17-33S, longitud: 149-37W, altitud: 2 m

Observació

L'informe es va fer fa 36 minuts, a les 03:00 UTC
Vent 17 kt del Sud
Temperatura 26°C
Humitat 70%
Pressió 1012 hPa
Visibilitat 10 km o més
sense núvols per sota de 1500 mi sense presència de cumulonimbus.

METAR: NTAA 180300Z AUTO 19017KT CAVOK 26/20 Q1012 NOSIG

Hora: 17:36 (03:36 UTC)

Pronòstic

L'informe es va fer fa 4 hores i 36 minuts, a les 23:00 UTC
Pronòstic vàlid del 18 a les 00 UTC al 19 a les 06 UTC
Vent 15 kt del Sud/Sud-Oest
Visibilitat 10 km o més
Escasses núvols a una alçada de 2300 ft
Núvols disperses a una alçada de 6000 ft
Probabilitat 30% :
Temporalment
l' 18 a les 12 UTC al 18 a les 18 UTC
Vent 5 kt del Sud
Evolucionant progressivament
l' 19 a les 04 UTC al 19 a les 06 UTC
Vent 5 kt amb direcció variable

TAF: NTAA 172300Z 1800/1906 20015KT 9999 FEW023 SCT060 PROB30 TEMPO 1812/1818 18005KT BECMG 1904/1906 VRB05KT

Observacions i pronòstics meteorològics de més de 4000 aeroports (METAR i TAF).

Les estacions disponibles són els punts grocs i vermells al mapa.

Posi el ratolí al punt desitjat per veure el nom de l'estació.

Feu clic per veure les observacions i els pronòstics meteorològics.

Per canviar el mapa: feu clic els botons verds amb una creu de color negre per apropar; al botó verd amb un guió per allunyar la imatge; o en les fletxes verdes per a mapes adjacents.


METAR-TAF: